Time;durP1;ratioP1;P1;durP2;ratioP2;P2;SDS_P1;SDS_P2;PMS_P1;PMS_P2;Temp;Humidity;BMP_temperature;BMP_pressure;BME280_temperature;BME280_humidity;BME280_pressure;Samples;Min_cycle;Max_cycle;Signal;HPM_P1;HPM_P2
2024/02/07 00:01:27;;;;;;;4.67;3.50;;;18.60;1.00;;;;;;2612196;51;20435;-65
2024/02/07 00:03:53;;;;;;;3.03;2.60;;;18.60;1.00;;;;;;2613172;54;21045;-66
2024/02/07 00:06:18;;;;;;;2.93;2.67;;;18.60;1.00;;;;;;2612739;54;20168;-65
2024/02/07 00:08:44;;;;;;;5.10;3.70;;;18.60;1.00;;;;;;2613540;54;20176;-63
2024/02/07 00:11:10;;;;;;;3.80;2.60;;;18.60;1.00;;;;;;2612853;54;20197;-64
2024/02/07 00:13:36;;;;;;;2.80;2.33;;;18.60;1.00;;;;;;2612508;50;20165;-65
2024/02/07 00:16:02;;;;;;;4.13;2.40;;;18.60;1.00;;;;;;2612967;54;20163;-65
2024/02/07 00:18:28;;;;;;;3.27;2.40;;;18.60;1.00;;;;;;2613007;54;20811;-65
2024/02/07 00:20:54;;;;;;;3.30;2.70;;;18.60;1.00;;;;;;2613537;52;20463;-66
2024/02/07 00:23:19;;;;;;;3.20;2.93;;;18.60;1.00;;;;;;2612507;54;20151;-66
2024/02/07 00:25:45;;;;;;;3.57;2.57;;;18.60;1.00;;;;;;2612139;54;20418;-65
2024/02/07 00:28:11;;;;;;;3.40;3.10;;;18.60;1.00;;;;;;2613545;39;20648;-65
2024/02/07 00:30:37;;;;;;;4.20;2.70;;;18.60;1.00;;;;;;2613257;47;20415;-66
2024/02/07 00:33:03;;;;;;;3.20;2.83;;;18.60;1.00;;;;;;2613075;47;20163;-65
2024/02/07 00:35:28;;;;;;;4.23;2.80;;;18.60;1.00;;;;;;2612048;54;20289;-64
2024/02/07 00:37:54;;;;;;;2.73;2.40;;;18.60;1.00;;;;;;2613328;54;20408;-64
2024/02/07 00:40:19;;;;;;;3.33;3.00;;;18.60;1.00;;;;;;2612893;47;20170;-64
2024/02/07 00:42:47;;;;;;;4.33;2.70;;;18.60;1.00;;;;;;2612861;54;20170;-65
2024/02/07 00:45:12;;;;;;;4.20;2.60;;;18.60;1.00;;;;;;2613320;54;20168;-65
2024/02/07 00:47:39;;;;;;;4.83;2.70;;;18.60;1.00;;;;;;2612952;54;21048;-65
2024/02/07 00:50:05;;;;;;;3.27;2.20;;;18.60;1.00;;;;;;2612546;54;20162;-64
2024/02/07 00:52:30;;;;;;;4.90;2.77;;;18.60;1.00;;;;;;2613172;54;20443;-61
2024/02/07 00:54:56;;;;;;;2.77;2.50;;;18.60;1.00;;;;;;2613049;54;20391;-59
2024/02/07 00:57:22;;;;;;;3.07;2.77;;;18.60;1.00;;;;;;2612381;54;20173;-61
2024/02/07 00:59:47;;;;;;;2.93;2.60;;;18.60;1.00;;;;;;2613173;47;20254;-60
2024/02/07 01:02:14;;;;;;;4.33;3.17;;;18.60;1.00;;;;;;2612448;47;20246;-61
2024/02/07 01:04:40;;;;;;;2.80;2.43;;;18.60;1.00;;;;;;2612077;54;20163;-60
2024/02/07 01:07:07;;;;;;;2.87;2.27;;;18.60;1.00;;;;;;2612833;54;20428;-61
2024/02/07 01:09:34;;;;;;;4.10;2.50;;;18.60;1.00;;;;;;2612170;54;20455;-59
2024/02/07 01:12:01;;;;;;;2.57;2.37;;;18.60;1.00;;;;;;2613500;54;20477;-61
2024/02/07 01:14:26;;;;;;;2.53;2.33;;;18.60;1.00;;;;;;2612401;47;20415;-60
2024/02/07 01:16:52;;;;;;;2.97;2.70;;;18.60;1.00;;;;;;2613641;54;20454;-60
2024/02/07 01:19:18;;;;;;;2.83;2.30;;;18.60;1.00;;;;;;2612719;54;20185;-60
2024/02/07 01:21:44;;;;;;;3.10;2.63;;;18.60;1.00;;;;;;2613241;54;20676;-59
2024/02/07 01:24:09;;;;;;;3.60;3.20;;;18.60;1.00;;;;;;2613969;31;20765;-66
2024/02/07 01:26:35;;;;;;;2.87;2.57;;;18.60;1.00;;;;;;2613130;47;20174;-65
2024/02/07 01:29:02;;;;;;;2.40;2.20;;;18.60;1.00;;;;;;2612414;54;20147;-65
2024/02/07 01:31:28;;;;;;;2.60;2.40;;;18.60;1.00;;;;;;2612982;54;20417;-65
2024/02/07 01:33:55;;;;;;;5.10;2.33;;;18.60;1.00;;;;;;2612284;52;20411;-65
2024/02/07 01:36:22;;;;;;;2.60;2.40;;;18.60;1.00;;;;;;2612897;54;20428;-65
2024/02/07 01:38:49;;;;;;;3.20;2.67;;;18.60;1.00;;;;;;2613099;54;20396;-65
2024/02/07 01:41:15;;;;;;;3.57;2.80;;;18.60;1.00;;;;;;2613425;54;20404;-66
2024/02/07 01:43:41;;;;;;;5.17;2.53;;;18.60;1.00;;;;;;2613468;54;21067;-62
2024/02/07 01:46:07;;;;;;;3.00;2.70;;;18.50;1.00;;;;;;2611631;54;20396;-63
2024/02/07 01:48:33;;;;;;;3.97;2.87;;;18.60;1.00;;;;;;2613351;39;20617;-62
2024/02/07 01:51:02;;;;;;;3.73;3.07;;;18.60;1.00;;;;;;2612601;47;20264;-63
2024/02/07 01:53:29;;;;;;;3.80;2.50;;;18.50;1.00;;;;;;2612796;54;20443;-62
2024/02/07 01:55:55;;;;;;;3.20;2.60;;;18.50;1.00;;;;;;2613013;47;20428;-62
2024/02/07 01:58:24;;;;;;;4.10;2.70;;;18.60;1.00;;;;;;2612933;39;20780;-62
2024/02/07 02:00:50;;;;;;;2.53;2.30;;;18.50;1.00;;;;;;2611780;54;20419;-62
2024/02/07 02:03:15;;;;;;;2.50;2.30;;;18.50;1.00;;;;;;2613859;47;20550;-73
2024/02/07 02:05:41;;;;;;;3.00;2.67;;;18.50;1.00;;;;;;2613550;54;20160;-73
2024/02/07 02:08:08;;;;;;;2.63;2.43;;;18.50;1.00;;;;;;2613345;54;20146;-73
2024/02/07 02:10:35;;;;;;;2.80;2.57;;;18.60;1.00;;;;;;2613438;54;20172;-73
2024/02/07 02:13:01;;;;;;;2.63;2.43;;;18.60;1.00;;;;;;2612516;54;20443;-72
2024/02/07 02:15:28;;;;;;;2.60;2.40;;;18.50;1.00;;;;;;2614091;54;21045;-73
2024/02/07 02:17:54;;;;;;;2.40;2.20;;;18.50;1.00;;;;;;2612876;49;20468;-74
2024/02/07 02:20:20;;;;;;;2.60;2.40;;;18.50;1.00;;;;;;2613246;54;21016;-73
2024/02/07 02:23:01;;;;;;;3.40;2.53;;;18.50;1.00;;;;;;2613172;54;20150;-72
2024/02/07 02:25:26;;;;;;;2.50;2.30;;;18.50;1.00;;;;;;2613183;54;20790;-72
2024/02/07 02:28:18;;;;;;;3.77;2.83;;;18.50;1.00;;;;;;2612953;54;20398;-73
2024/02/07 02:30:50;;;;;;;2.80;2.60;;;18.50;1.00;;;;;;2613709;54;20181;-73
2024/02/07 02:33:18;;;;;;;3.13;2.57;;;18.50;1.00;;;;;;2613171;54;20439;-59
2024/02/07 02:35:49;;;;;;;3.83;2.60;;;18.60;1.00;;;;;;2612258;54;20443;-59
2024/02/07 02:38:15;;;;;;;3.03;2.73;;;18.60;1.00;;;;;;2613507;54;20454;-60
2024/02/07 02:40:43;;;;;;;3.93;2.40;;;18.50;1.00;;;;;;2613887;54;20419;-59
2024/02/07 02:43:10;;;;;;;2.90;2.70;;;18.60;1.00;;;;;;2612763;54;20422;-59
2024/02/07 02:45:36;;;;;;;3.10;2.70;;;18.60;1.00;;;;;;2613232;54;21078;-59
2024/02/07 02:48:02;;;;;;;2.77;2.30;;;18.60;1.00;;;;;;2613077;54;20909;-58
2024/02/07 02:50:29;;;;;;;1.90;1.80;;;18.60;1.00;;;;;;2613712;54;20437;-59
2024/02/07 02:52:55;;;;;;;3.20;2.40;;;18.50;1.00;;;;;;2613415;54;20987;-65
2024/02/07 02:55:21;;;;;;;3.90;2.30;;;18.50;1.00;;;;;;2613099;54;20426;-66
2024/02/07 02:57:47;;;;;;;2.53;2.33;;;18.50;1.00;;;;;;2613829;54;20438;-66
2024/02/07 03:00:14;;;;;;;5.00;3.33;;;18.50;1.00;;;;;;2613119;54;20257;-66
2024/02/07 03:02:43;;;;;;;3.10;2.47;;;18.50;1.00;;;;;;2612935;54;20186;-66
2024/02/07 03:05:37;;;;;;;2.60;2.23;;;18.50;1.00;;;;;;2612420;54;20431;-66
2024/02/07 03:10:36;;;;;;;3.20;3.00;;;18.50;1.00;;;;;;2613423;46;20396;-66
2024/02/07 03:13:02;;;;;;;2.47;2.23;;;18.50;1.00;;;;;;2613388;39;20800;-59
2024/02/07 03:15:28;;;;;;;3.00;2.60;;;18.50;1.00;;;;;;2613820;54;20403;-60
2024/02/07 03:17:54;;;;;;;2.83;2.20;;;18.50;1.00;;;;;;2612414;54;21090;-59
2024/02/07 03:20:20;;;;;;;2.73;2.50;;;18.50;1.00;;;;;;2613322;54;20522;-59
2024/02/07 03:22:46;;;;;;;2.17;1.97;;;18.50;1.00;;;;;;2613108;54;20429;-60
2024/02/07 03:25:16;;;;;;;2.37;2.10;;;18.50;1.00;;;;;;2613387;54;20174;-59
2024/02/07 03:27:46;;;;;;;2.63;2.07;;;18.50;1.00;;;;;;2613631;54;20419;-59
2024/02/07 03:30:16;;;;;;;2.50;2.30;;;18.50;1.00;;;;;;2613444;51;20429;-59
2024/02/07 03:32:44;;;;;;;2.20;2.10;;;18.50;1.00;;;;;;2612846;54;20512;-59
2024/02/07 03:35:11;;;;;;;2.57;2.37;;;18.50;1.00;;;;;;2613425;39;20840;-59
2024/02/07 03:37:38;;;;;;;2.20;2.00;;;18.50;1.00;;;;;;2613988;39;20528;-59
2024/02/07 03:40:13;;;;;;;2.47;2.27;;;18.50;1.00;;;;;;2613093;54;20403;-58
2024/02/07 03:42:43;;;;;;;2.40;2.20;;;18.50;1.00;;;;;;2612951;47;20570;-58
2024/02/07 03:45:15;;;;;;;2.50;2.17;;;18.50;1.00;;;;;;2612953;54;20419;-58
2024/02/07 03:47:41;;;;;;;3.13;2.73;;;18.50;1.00;;;;;;2612504;54;20455;-58
2024/02/07 03:50:15;;;;;;;2.13;1.90;;;18.50;1.00;;;;;;2613041;54;20439;-60
2024/02/07 03:52:45;;;;;;;2.40;2.20;;;18.50;1.00;;;;;;2613173;54;20540;-58
2024/02/07 03:55:12;;;;;;;2.30;2.10;;;18.50;1.00;;;;;;2612414;54;20424;-58
2024/02/07 03:57:44;;;;;;;5.20;2.27;;;18.50;1.00;;;;;;2613469;39;20791;-59
2024/02/07 04:00:14;;;;;;;1.97;1.87;;;18.50;1.00;;;;;;2612175;54;20445;-59
2024/02/07 04:02:43;;;;;;;1.90;1.80;;;18.50;1.00;;;;;;2613465;47;20447;-72
2024/02/07 04:05:08;;;;;;;3.37;2.20;;;18.50;1.00;;;;;;2613618;54;20405;-73
2024/02/07 04:07:35;;;;;;;2.33;2.13;;;18.50;1.00;;;;;;2613675;47;20418;-72
2024/02/07 04:10:03;;;;;;;2.30;2.10;;;18.50;1.00;;;;;;2613809;54;20210;-72
2024/02/07 05:17:21;;;;;;;1.40;1.30;;;18.40;1.00;;;;;;2613304;54;20427;-73
2024/02/07 05:19:48;;;;;;;2.03;1.90;;;18.40;1.00;;;;;;2612960;54;20147;-72
2024/02/07 05:22:16;;;;;;;1.50;1.30;;;18.40;1.00;;;;;;2613291;54;20400;-73
2024/02/07 05:24:46;;;;;;;1.73;1.50;;;18.40;1.00;;;;;;2612989;39;20834;-73
2024/02/07 05:27:12;;;;;;;2.33;1.70;;;18.40;1.00;;;;;;2612508;54;20435;-73
2024/02/07 05:29:44;;;;;;;1.80;1.70;;;18.40;1.00;;;;;;2613291;54;20423;-74
2024/02/07 05:32:11;;;;;;;1.57;1.47;;;18.40;1.00;;;;;;2613498;54;20216;-60
2024/02/07 05:34:37;;;;;;;1.90;1.70;;;18.40;1.00;;;;;;2612693;54;20417;-59
2024/02/07 05:37:03;;;;;;;1.83;1.50;;;18.40;1.00;;;;;;2612969;47;20419;-59
2024/02/07 05:39:33;;;;;;;1.40;1.30;;;18.40;1.00;;;;;;2612963;54;20156;-59
2024/02/07 05:42:00;;;;;;;1.50;1.40;;;18.40;1.00;;;;;;2612043;51;20981;-58
2024/02/07 05:44:26;;;;;;;1.30;1.20;;;18.40;1.00;;;;;;2612268;47;20423;-59
2024/02/07 05:46:51;;;;;;;1.70;1.60;;;18.40;1.00;;;;;;2612543;54;20451;-59
2024/02/07 05:49:17;;;;;;;1.70;1.60;;;18.40;1.00;;;;;;2612826;54;20419;-60
2024/02/07 05:51:43;;;;;;;1.67;1.57;;;18.40;1.00;;;;;;2612222;54;20260;-60
2024/02/07 05:54:08;;;;;;;1.50;1.40;;;18.40;1.00;;;;;;2612370;54;20268;-59
2024/02/07 05:56:35;;;;;;;1.70;1.60;;;18.40;1.00;;;;;;2612857;39;20534;-60
2024/02/07 05:59:01;;;;;;;1.90;1.80;;;18.40;1.00;;;;;;2612057;54;20163;-60
2024/02/07 06:01:27;;;;;;;1.70;1.60;;;18.30;1.00;;;;;;2611874;54;20411;-59
2024/02/07 06:03:53;;;;;;;1.63;1.53;;;18.40;1.00;;;;;;2612838;54;21034;-61
2024/02/07 06:06:20;;;;;;;1.63;1.53;;;18.30;1.00;;;;;;2611801;54;20570;-61
2024/02/07 06:08:49;;;;;;;1.83;1.50;;;18.30;1.00;;;;;;2612227;54;20404;-60
2024/02/07 06:11:16;;;;;;;1.70;1.60;;;18.30;1.00;;;;;;2613045;54;20411;-61
2024/02/07 06:13:41;;;;;;;1.50;1.40;;;18.30;1.00;;;;;;2612815;46;20421;-60
2024/02/07 06:16:07;;;;;;;2.00;1.47;;;18.40;1.00;;;;;;2613224;54;20485;-62
2024/02/07 06:18:35;;;;;;;1.60;1.40;;;18.30;1.00;;;;;;2612354;54;20414;-61
2024/02/07 06:21:02;;;;;;;2.23;2.03;;;18.30;1.00;;;;;;2611687;54;20159;-61
2024/02/07 06:23:28;;;;;;;1.63;1.53;;;18.30;1.00;;;;;;2611296;47;20441;-60
2024/02/07 06:25:53;;;;;;;2.73;1.90;;;18.30;1.00;;;;;;2612055;47;20429;-61
2024/02/07 06:28:19;;;;;;;2.07;1.60;;;18.40;1.00;;;;;;2612879;54;20403;-60
2024/02/07 06:30:45;;;;;;;2.27;1.70;;;18.30;1.00;;;;;;2612467;54;20253;-60
2024/02/07 06:33:11;;;;;;;1.60;1.50;;;18.30;1.00;;;;;;2612579;54;20168;-60
2024/02/07 06:35:36;;;;;;;2.03;1.60;;;18.30;1.00;;;;;;2611239;54;20165;-61
2024/02/07 06:38:03;;;;;;;1.50;1.40;;;18.30;1.00;;;;;;2612606;54;20161;-60
2024/02/07 06:40:29;;;;;;;2.10;1.30;;;18.30;1.00;;;;;;2612301;54;20135;-60
2024/02/07 06:42:55;;;;;;;1.90;1.57;;;18.30;1.00;;;;;;2613128;39;20918;-60
2024/02/07 06:45:20;;;;;;;1.63;1.53;;;18.30;1.00;;;;;;2612577;54;20420;-60
2024/02/07 06:47:46;;;;;;;1.50;1.40;;;18.30;1.00;;;;;;2612207;54;20535;-60
2024/02/07 06:50:12;;;;;;;1.50;1.40;;;18.30;1.00;;;;;;2612831;39;20590;-60
2024/02/07 06:52:39;;;;;;;2.10;2.00;;;18.30;1.00;;;;;;2612086;54;20195;-60
2024/02/07 06:55:05;;;;;;;1.90;1.80;;;18.30;1.00;;;;;;2612507;54;20141;-60
2024/02/07 06:57:31;;;;;;;1.53;1.43;;;18.30;1.00;;;;;;2612534;54;20511;-61
2024/02/07 06:59:56;;;;;;;1.80;1.70;;;18.30;1.00;;;;;;2611175;47;20419;-60
2024/02/07 07:02:22;;;;;;;1.90;1.80;;;18.30;1.00;;;;;;2611854;39;20635;-59
2024/02/07 07:04:49;;;;;;;2.07;1.70;;;18.30;1.00;;;;;;2612082;54;20158;-59
2024/02/07 07:07:15;;;;;;;1.90;1.80;;;18.30;1.00;;;;;;2612945;47;20457;-60
2024/02/07 07:09:41;;;;;;;1.70;1.60;;;18.30;1.00;;;;;;2613264;39;21184;-60
2024/02/07 07:12:07;;;;;;;3.67;1.60;;;18.30;1.00;;;;;;2612080;54;20151;-65
2024/02/07 07:14:32;;;;;;;1.70;1.60;;;18.30;1.00;;;;;;2612357;47;20443;-64
2024/02/07 07:16:58;;;;;;;2.20;1.90;;;18.30;1.00;;;;;;2612097;54;20977;-64
2024/02/07 07:19:24;;;;;;;1.97;1.57;;;18.30;1.00;;;;;;2612370;54;21072;-66
2024/02/07 07:21:49;;;;;;;1.87;1.77;;;18.30;1.00;;;;;;2613233;54;20255;-66
2024/02/07 07:24:15;;;;;;;2.57;1.80;;;18.30;1.00;;;;;;2613083;54;20171;-64
2024/02/07 07:26:41;;;;;;;2.77;1.90;;;18.20;1.00;;;;;;2613309;54;20170;-66
2024/02/07 07:29:06;;;;;;;2.17;2.07;;;18.20;1.00;;;;;;2612529;54;20177;-66
2024/02/07 07:31:35;;;;;;;3.97;2.00;;;18.30;1.00;;;;;;2613624;54;20151;-66
2024/02/07 07:34:01;;;;;;;2.77;1.50;;;18.30;1.00;;;;;;2612457;47;20203;-62
2024/02/07 07:36:27;;;;;;;1.70;1.60;;;18.20;1.00;;;;;;2612909;54;20404;-62
2024/02/07 07:38:54;;;;;;;1.87;1.70;;;18.20;1.00;;;;;;2612547;54;20146;-61
2024/02/07 07:41:20;;;;;;;1.93;1.73;;;18.20;1.00;;;;;;2613533;39;21106;-62
2024/02/07 07:43:46;;;;;;;2.00;1.70;;;18.20;1.00;;;;;;2612874;54;20426;-62
2024/02/07 07:46:12;;;;;;;1.87;1.67;;;18.20;1.00;;;;;;2613113;54;20232;-62
2024/02/07 07:48:38;;;;;;;1.60;1.50;;;18.20;1.00;;;;;;2613301;54;20205;-63
2024/02/07 07:51:06;;;;;;;1.60;1.50;;;18.20;1.00;;;;;;2613033;54;20492;-62
2024/02/07 07:53:32;;;;;;;1.80;1.70;;;18.20;1.00;;;;;;2612238;47;20177;-65
2024/02/07 07:55:58;;;;;;;2.20;1.50;;;18.20;1.00;;;;;;2612299;47;20544;-66
2024/02/07 07:58:23;;;;;;;1.77;1.67;;;18.20;1.00;;;;;;2613162;54;20415;-64
2024/02/07 08:00:49;;;;;;;1.93;1.40;;;18.20;1.00;;;;;;2612588;54;20170;-63
2024/02/07 08:03:15;;;;;;;2.13;1.87;;;18.20;1.00;;;;;;2612550;54;20168;-64
2024/02/07 08:05:41;;;;;;;1.50;1.40;;;18.20;1.00;;;;;;2611113;54;20171;-65
2024/02/07 08:08:08;;;;;;;1.70;1.60;;;18.20;1.00;;;;;;2612679;54;20293;-65
2024/02/07 08:10:37;;;;;;;1.93;1.83;;;18.20;1.00;;;;;;2613290;54;21039;-65
2024/02/07 08:13:03;;;;;;;3.23;1.50;;;18.20;1.00;;;;;;2611954;54;20461;-64
2024/02/07 08:15:29;;;;;;;1.70;1.60;;;18.20;1.00;;;;;;2612553;54;20420;-65
2024/02/07 08:17:57;;;;;;;2.67;2.37;;;18.20;1.00;;;;;;2613013;54;20401;-65
2024/02/07 08:20:24;;;;;;;2.10;1.70;;;18.20;1.00;;;;;;2612874;51;20205;-64
2024/02/07 08:22:50;;;;;;;2.40;2.00;;;18.20;1.00;;;;;;2612883;47;20470;-66
2024/02/07 08:25:15;;;;;;;2.53;2.13;;;18.20;1.00;;;;;;2612640;54;20405;-64
2024/02/07 08:27:41;;;;;;;2.17;1.93;;;18.20;1.00;;;;;;2613421;54;20461;-65
2024/02/07 08:30:07;;;;;;;1.70;1.60;;;18.20;1.00;;;;;;2612366;54;20165;-65
2024/02/07 08:32:33;;;;;;;2.23;1.70;;;18.20;1.00;;;;;;2612853;54;20149;-65
2024/02/07 08:35:01;;;;;;;2.13;1.93;;;18.20;1.00;;;;;;2612985;54;20447;-64
2024/02/07 08:37:27;;;;;;;1.80;1.70;;;18.20;1.00;;;;;;2613617;54;20158;-64
2024/02/07 08:39:56;;;;;;;1.70;1.60;;;18.20;1.00;;;;;;2613244;54;20412;-64
2024/02/07 08:42:21;;;;;;;2.03;1.60;;;18.20;1.00;;;;;;2612651;54;20210;-60
2024/02/07 08:44:48;;;;;;;1.90;1.80;;;18.20;1.00;;;;;;2613272;54;20435;-60
2024/02/07 08:47:13;;;;;;;1.93;1.70;;;18.20;1.00;;;;;;2611816;54;20188;-60
2024/02/07 08:49:40;;;;;;;1.70;1.53;;;18.20;1.00;;;;;;2613215;54;20567;-60
2024/02/07 08:52:06;;;;;;;1.50;1.40;;;18.20;1.00;;;;;;2612364;54;20158;-60
2024/02/07 08:54:33;;;;;;;1.83;1.73;;;18.20;1.00;;;;;;2612295;54;20521;-60
2024/02/07 08:57:00;;;;;;;1.70;1.60;;;18.20;1.00;;;;;;2612789;54;20183;-60
2024/02/07 08:59:25;;;;;;;2.23;2.03;;;18.20;1.00;;;;;;2611617;54;20434;-60
2024/02/07 09:01:51;;;;;;;1.63;1.53;;;18.20;1.00;;;;;;2612144;54;20991;-61
2024/02/07 09:04:17;;;;;;;2.47;2.10;;;18.10;1.00;;;;;;2612633;47;20727;-62
2024/02/07 09:06:45;;;;;;;1.43;1.33;;;18.20;1.00;;;;;;2611547;54;20178;-60
2024/02/07 09:09:11;;;;;;;1.90;1.40;;;18.10;1.00;;;;;;2613325;39;20602;-61
2024/02/07 09:11:36;;;;;;;1.50;1.40;;;18.20;1.00;;;;;;2612842;54;20409;-61
2024/02/07 09:14:02;;;;;;;2.10;1.73;;;18.20;1.00;;;;;;2612670;54;20161;-60
2024/02/07 09:16:29;;;;;;;1.50;1.40;;;18.20;1.00;;;;;;2613914;39;20785;-61
2024/02/07 09:18:55;;;;;;;1.50;1.30;;;18.10;1.00;;;;;;2611787;54;20186;-61
2024/02/07 09:21:21;;;;;;;1.70;1.60;;;18.10;1.00;;;;;;2612612;54;20424;-60
2024/02/07 09:23:47;;;;;;;2.60;1.43;;;18.20;1.00;;;;;;2612459;54;20160;-62
2024/02/07 09:26:13;;;;;;;1.60;1.50;;;18.20;1.00;;;;;;2612987;51;20186;-61
2024/02/07 09:28:39;;;;;;;1.63;1.53;;;18.10;1.00;;;;;;2612870;54;20427;-61
2024/02/07 09:31:04;;;;;;;1.50;1.40;;;18.10;1.00;;;;;;2612856;47;20409;-61
2024/02/07 09:33:30;;;;;;;2.03;1.77;;;18.10;1.00;;;;;;2611702;47;20155;-58
2024/02/07 09:35:58;;;;;;;1.97;1.57;;;18.10;1.00;;;;;;2612870;54;20922;-59
2024/02/07 09:38:26;;;;;;;1.70;1.60;;;18.20;1.00;;;;;;2611545;54;20457;-59
2024/02/07 09:40:57;;;;;;;1.73;1.50;;;18.10;1.00;;;;;;2612551;54;20436;-59
2024/02/07 09:43:23;;;;;;;2.00;1.80;;;18.10;1.00;;;;;;2611903;54;20403;-58
2024/02/07 09:45:58;;;;;;;1.60;1.50;;;18.10;1.00;;;;;;2612497;54;20426;-59
2024/02/07 09:48:26;;;;;;;1.50;1.40;;;18.10;1.00;;;;;;2612711;39;20835;-58
2024/02/07 09:50:59;;;;;;;1.67;1.30;;;18.10;1.00;;;;;;2612717;54;20418;-59
2024/02/07 09:53:26;;;;;;;1.70;1.60;;;18.20;1.00;;;;;;2612727;54;20392;-60
2024/02/07 09:55:53;;;;;;;2.23;1.70;;;18.10;1.00;;;;;;2612291;54;20431;-59
2024/02/07 09:58:22;;;;;;;1.50;1.40;;;18.10;1.00;;;;;;2612237;51;20459;-60
2024/02/07 10:00:52;;;;;;;1.70;1.60;;;18.10;1.00;;;;;;2612492;39;21268;-59
2024/02/07 10:03:24;;;;;;;1.90;1.70;;;18.10;1.00;;;;;;2612484;39;20885;-59
2024/02/07 10:05:55;;;;;;;2.43;1.97;;;18.10;1.00;;;;;;2612698;51;20423;-60
2024/02/07 10:08:21;;;;;;;1.90;1.80;;;18.10;1.00;;;;;;2612856;54;20412;-60
2024/02/07 10:10:47;;;;;;;1.53;1.43;;;18.10;1.00;;;;;;2611315;54;20415;-60
2024/02/07 10:13:15;;;;;;;3.30;1.90;;;18.10;1.00;;;;;;2612823;54;20428;-59
2024/02/07 10:15:45;;;;;;;2.50;1.83;;;18.10;1.00;;;;;;2612549;49;20163;-59
2024/02/07 10:18:11;;;;;;;1.60;1.50;;;18.10;1.00;;;;;;2612983;54;20424;-59
2024/02/07 10:20:37;;;;;;;1.97;1.77;;;18.10;1.00;;;;;;2612642;54;20447;-59
2024/02/07 10:23:08;;;;;;;1.57;1.47;;;18.10;1.00;;;;;;2612836;54;20401;-59
2024/02/07 10:25:35;;;;;;;1.60;1.50;;;18.10;1.00;;;;;;2612713;54;20479;-58
2024/02/07 10:28:05;;;;;;;2.50;1.63;;;18.10;1.00;;;;;;2612058;54;20456;-58
2024/02/07 10:30:31;;;;;;;2.27;2.07;;;18.10;1.00;;;;;;2612673;54;20404;-59
2024/02/07 10:32:58;;;;;;;1.87;1.77;;;18.10;1.00;;;;;;2612616;54;20420;-58
2024/02/07 10:35:24;;;;;;;2.10;1.90;;;18.10;1.00;;;;;;2612115;54;20459;-58
2024/02/07 10:37:55;;;;;;;2.37;1.73;;;18.10;1.00;;;;;;2613862;31;20818;-58
2024/02/07 10:40:21;;;;;;;1.70;1.60;;;18.10;1.00;;;;;;2612700;54;20422;-58
2024/02/07 10:42:57;;;;;;;1.80;1.70;;;18.10;1.00;;;;;;2612096;54;20422;-65
2024/02/07 10:45:23;;;;;;;2.33;2.07;;;18.10;1.00;;;;;;2613029;39;20985;-65
2024/02/07 10:47:52;;;;;;;1.80;1.70;;;18.10;1.00;;;;;;2611844;54;20456;-64
2024/02/07 10:50:20;;;;;;;2.30;1.97;;;18.10;1.00;;;;;;2612536;47;20465;-64
2024/02/07 10:52:47;;;;;;;2.13;1.60;;;18.10;1.00;;;;;;2612842;47;20408;-65
2024/02/07 10:55:14;;;;;;;2.57;1.90;;;18.20;1.00;;;;;;2612772;47;20415;-65
2024/02/07 10:57:45;;;;;;;4.23;1.77;;;18.10;1.00;;;;;;2613403;54;20437;-65
2024/02/07 11:00:11;;;;;;;1.97;1.77;;;18.10;1.00;;;;;;2613508;54;20392;-64
2024/02/07 11:02:38;;;;;;;3.03;2.00;;;18.10;1.00;;;;;;2612238;54;20421;-59
2024/02/07 11:05:05;;;;;;;2.70;1.67;;;18.10;1.00;;;;;;2613081;54;20421;-59
2024/02/07 11:07:31;;;;;;;2.83;2.00;;;18.10;1.00;;;;;;2613014;54;21008;-59
2024/02/07 11:09:57;;;;;;;1.70;1.60;;;18.10;1.00;;;;;;2612194;54;20399;-60
2024/02/07 11:12:24;;;;;;;1.77;1.67;;;18.10;1.00;;;;;;2612725;47;20422;-59
2024/02/07 11:14:51;;;;;;;2.10;1.90;;;18.10;1.00;;;;;;2613077;54;20169;-59
2024/02/07 11:17:17;;;;;;;2.23;1.70;;;18.10;1.00;;;;;;2613289;54;20441;-59
2024/02/07 11:19:44;;;;;;;2.03;1.87;;;18.10;1.00;;;;;;2612403;47;20423;-58
2024/02/07 11:22:23;;;;;;;2.90;1.90;;;18.10;1.00;;;;;;2612528;54;20412;-60
2024/02/07 11:24:54;;;;;;;1.80;1.70;;;18.10;1.00;;;;;;2612936;54;20414;-60
2024/02/07 11:27:20;;;;;;;1.80;1.70;;;18.10;1.00;;;;;;2612972;46;20415;-60
2024/02/07 11:29:46;;;;;;;2.07;1.87;;;18.10;1.00;;;;;;2612851;47;20450;-60
2024/02/07 11:32:13;;;;;;;2.20;1.90;;;18.10;1.00;;;;;;2613598;54;20509;-61
2024/02/07 11:34:40;;;;;;;3.50;1.90;;;18.10;1.00;;;;;;2613893;39;21104;-60
2024/02/07 11:37:10;;;;;;;1.83;1.73;;;18.10;1.00;;;;;;2612610;47;20424;-60
2024/02/07 11:39:38;;;;;;;2.90;2.33;;;18.10;1.00;;;;;;2613210;54;20416;-60
2024/02/07 11:42:16;;;;;;;2.10;1.90;;;18.10;1.00;;;;;;2612130;54;20451;-60
2024/02/07 11:44:52;;;;;;;1.80;1.70;;;18.10;1.00;;;;;;2613176;47;20418;-60
2024/02/07 11:47:29;;;;;;;1.97;1.63;;;18.10;1.00;;;;;;2612199;54;20451;-60
2024/02/07 11:50:00;;;;;;;3.90;1.63;;;18.20;1.00;;;;;;2613560;54;20414;-60
2024/02/07 11:52:31;;;;;;;3.20;2.07;;;18.10;1.00;;;;;;2613092;54;20424;-58
2024/02/07 11:55:04;;;;;;;2.10;1.90;;;18.10;1.00;;;;;;2613386;47;20434;-58
2024/02/07 11:57:33;;;;;;;2.90;2.20;;;18.10;1.00;;;;;;2612340;54;20980;-58
2024/02/07 12:00:05;;;;;;;2.23;2.00;;;18.10;1.00;;;;;;2613757;39;20920;-59
2024/02/07 12:02:31;;;;;;;2.20;2.00;;;18.10;1.00;;;;;;2612329;46;20484;-58
2024/02/07 12:04:57;;;;;;;2.30;1.90;;;18.10;1.00;;;;;;2613648;54;20429;-58
2024/02/07 12:07:25;;;;;;;2.50;1.90;;;18.10;1.00;;;;;;2611666;54;20396;-59
2024/02/07 12:09:51;;;;;;;3.27;1.97;;;18.10;1.00;;;;;;2613374;39;20821;-58
2024/02/07 12:12:17;;;;;;;2.63;1.93;;;18.10;1.00;;;;;;2612427;54;20395;-72
2024/02/07 12:14:43;;;;;;;1.97;1.73;;;18.10;1.00;;;;;;2614529;39;20553;-72
2024/02/07 12:17:09;;;;;;;1.67;1.57;;;18.10;1.00;;;;;;2612662;54;20160;-72
2024/02/07 12:19:36;;;;;;;1.80;1.70;;;18.10;1.00;;;;;;2613404;54;20411;-72
2024/02/07 12:22:05;;;;;;;2.10;1.90;;;18.10;1.00;;;;;;2612725;39;21219;-72
2024/02/07 12:24:32;;;;;;;2.17;1.80;;;18.10;1.00;;;;;;2612650;47;20428;-72
2024/02/07 12:27:14;;;;;;;2.40;2.20;;;18.10;1.00;;;;;;2613618;54;20410;-72
2024/02/07 12:30:00;;;;;;;2.50;2.30;;;18.10;1.00;;;;;;2612898;51;20428;-72
2024/02/07 12:32:26;;;;;;;2.70;2.50;;;18.10;1.00;;;;;;2614075;54;21028;-65
2024/02/07 12:34:53;;;;;;;3.67;2.07;;;18.10;1.00;;;;;;2613412;54;20418;-65
2024/02/07 12:37:19;;;;;;;2.30;1.90;;;18.10;1.00;;;;;;2612423;54;20161;-65
2024/02/07 12:39:49;;;;;;;3.17;2.00;;;18.10;1.00;;;;;;2613268;54;20421;-65
2024/02/07 12:42:20;;;;;;;2.73;2.40;;;18.10;1.00;;;;;;2612077;54;21374;-64
2024/02/07 12:44:49;;;;;;;2.20;2.00;;;18.10;1.00;;;;;;2612867;54;20428;-65
2024/02/07 12:47:16;;;;;;;4.10;2.50;;;18.10;1.00;;;;;;2613328;54;20445;-64
2024/02/07 12:49:42;;;;;;;2.47;2.20;;;18.10;1.00;;;;;;2613105;54;20436;-64
2024/02/07 12:52:09;;;;;;;2.17;1.97;;;18.10;1.00;;;;;;2612783;54;20935;-66
2024/02/07 12:54:36;;;;;;;3.80;2.20;;;18.10;1.00;;;;;;2612190;54;20163;-64
2024/02/07 12:57:03;;;;;;;2.37;1.80;;;18.10;1.00;;;;;;2613198;54;20519;-65
2024/02/07 12:59:32;;;;;;;2.63;2.30;;;18.10;1.00;;;;;;2612014;54;20474;-64
2024/02/07 13:02:02;;;;;;;2.70;2.50;;;18.20;1.00;;;;;;2613048;54;20433;-59
2024/02/07 13:04:31;;;;;;;3.13;2.10;;;18.10;1.00;;;;;;2612250;54;20503;-59
2024/02/07 13:06:58;;;;;;;2.30;2.10;;;18.10;1.00;;;;;;2613079;54;20480;-59
2024/02/07 13:09:25;;;;;;;2.73;1.80;;;18.20;1.00;;;;;;2612074;54;20396;-59
2024/02/07 13:11:50;;;;;;;4.40;2.60;;;18.20;1.00;;;;;;2612240;54;20498;-59
2024/02/07 13:14:16;;;;;;;2.50;2.30;;;18.20;1.00;;;;;;2613441;54;20391;-59
2024/02/07 13:16:43;;;;;;;2.00;1.80;;;18.20;1.00;;;;;;2613225;54;20240;-59
2024/02/07 13:19:12;;;;;;;2.60;2.40;;;18.20;1.00;;;;;;2612543;47;20183;-58
2024/02/07 13:21:40;;;;;;;2.87;2.60;;;18.20;1.00;;;;;;2611246;54;20424;-60
2024/02/07 13:24:07;;;;;;;3.40;2.37;;;18.20;1.00;;;;;;2613441;54;20464;-66
2024/02/07 13:26:33;;;;;;;2.40;2.20;;;18.20;1.00;;;;;;2613549;54;20413;-66
2024/02/07 13:28:59;;;;;;;2.97;2.77;;;18.20;1.00;;;;;;2612633;54;20485;-66
2024/02/07 13:31:24;;;;;;;2.70;2.47;;;18.20;1.00;;;;;;2612477;47;20185;-66
2024/02/07 13:33:50;;;;;;;2.70;2.50;;;18.20;1.00;;;;;;2612825;54;20260;-65
2024/02/07 13:36:16;;;;;;;2.17;1.97;;;18.20;1.00;;;;;;2613168;39;21098;-66
2024/02/07 13:38:41;;;;;;;2.90;2.13;;;18.20;1.00;;;;;;2612146;54;20158;-64
2024/02/07 13:41:07;;;;;;;3.40;2.20;;;18.30;1.00;;;;;;2613071;47;20201;-66
2024/02/07 13:43:33;;;;;;;3.93;2.47;;;18.30;1.00;;;;;;2611916;54;20172;-65
2024/02/07 13:45:59;;;;;;;3.20;2.80;;;18.20;1.00;;;;;;2612594;54;20141;-65
2024/02/07 13:48:28;;;;;;;4.00;2.87;;;18.30;1.00;;;;;;2612736;54;21004;-66
2024/02/07 13:50:54;;;;;;;3.33;2.87;;;18.20;1.00;;;;;;2613030;54;20157;-65
2024/02/07 13:53:19;;;;;;;3.57;2.90;;;18.20;1.00;;;;;;2612570;54;21154;-64
2024/02/07 13:55:45;;;;;;;2.77;2.57;;;18.20;1.00;;;;;;2613063;54;20543;-65
2024/02/07 13:58:10;;;;;;;3.10;2.60;;;18.20;1.00;;;;;;2612419;54;20274;-65
2024/02/07 14:00:36;;;;;;;3.10;2.80;;;18.20;1.00;;;;;;2612635;54;20238;-65
2024/02/07 14:03:02;;;;;;;3.47;3.17;;;18.20;1.00;;;;;;2612362;51;20278;-64
2024/02/07 14:05:28;;;;;;;3.20;2.90;;;18.20;1.00;;;;;;2611968;47;20167;-65